Pagrindinis puslapis
METAR-TAF:

METAR-TAF

Oro uostai :

Bartow, Florida, Jungtinės Amerikos Valstijos

platuma: 27-57N, ilguma: 081-47W, Aukštis: 39 m

Dabartinis oras

Ataskaita buvo paskelbta 18 minutes, ne 17:15 UTC
Vėjas 7 kt iš Vakarų/Šiaurės Vakarų
Temperatūra 28°C
Drėgmė 62%
Slėgis 1014 hPa
Matomumas: 16.1 km
Giedras dangus

METAR: KBOW 171715Z AUTO 30007KT 10SM CLR 28/20 A2993 RMK AO2

Laikas: 13:33 (17:33 UTC)


TAF: trūkstamas

Orai ataskaitas ir orų prognozės (METAR, TAF).

turimą stotys yra geltonos ir raudonos taškus žemėlapyje.

Perkelti pele per norėdami pamatyti stoties vardą.

Tada spustelėkite, norėdami matyti oro stebėjimo ir prognozės.

Norėdami pakeisti žemėlapį: spustelėkite ant žalios mygtukų su juodo kryžiaus žemyn,; žalią mygtuką su brūkšneliu, jei norite nutolinti; arba žalių rodyklių gretimoms žemėlapius.


METAR-TAF: